Nearby METAR Reports

 

NZCH - Christchurch Int, New Zealand
Distance from station: W 10km
Updated: 19 Jul 2024 02:30
Mist, Overcast
Mist, Overcast
 Wind from NNW
Wind: NNW 6 km/h
Temperature: 8°C
Dew Point: 8°C
Humidity: 100%
Barometer: 1012 hPa
Summary: Mist
Clouds: Overcast
Visibility: 5 km
Cloud details: Mostly cloudy 91 m
Overcast 488 m
2024/07/18 14:30 NZCH 181430Z AUTO 34003KT 4500 BR BKN003/// OVC016/// 08/08 Q1012